Virgo Phoenix — 3FMO8 — position and weather

sailwx.info

Track history (hours):
 
Tides and Currents Weather Stations Pressure Air Temp Water Temp Dewpoint Dewpoint Depression Visibility Wind Speed Wind Dir Waves Ship Positions

Virgo Phoenix

Last reported at 2015-Sep-03 10:33 UTC. Time now 2015-Sep-03 15:16 UTC.
Position N 36°04' E 120°12'.

Length 96 m; draft 6.7 m.

Type: Ship (hazmat cat B). MMSI: 370795000.

Date/timePositionNaut miles runAvg speedWind from/ knotsBaromVisibWave heightAir tempDewpointWater temp
2015-Sep-03 10:33N 36°04' E 120°12'6 6.2
2015-Sep-03 09:33N 36°02' E 120°20'1212.0
2015-Sep-03 08:33N 35°59' E 120°34'  
2015-Aug-30 12:21N 31°03' E 122°08'911.1
2015-Aug-30 11:34N 31°06' E 121°58'1414.3
2015-Aug-30 10:33N 31°16' E 121°46'1212.3
2015-Aug-30 09:33N 31°23' E 121°35'1111.3
2015-Aug-30 08:33N 31°30' E 121°24'1313.2
2015-Aug-30 07:34N 31°39' E 121°13'1312.5
2015-Aug-30 06:29N 31°47' E 120°60'1011.0
2015-Aug-30 05:33N 31°55' E 120°53'1411.3
2015-Aug-30 04:20N 31°60' E 120°37'3 0.5
2015-Aug-29 21:19N 31°60' E 120°34'0 0.0
2015-Aug-29 01:22N 31°60' E 120°34'1 1.3
2015-Aug-29 00:22N 32°01' E 120°34'0 0.0
2015-Aug-28 23:28N 32°01' E 120°34'0 0.0
2015-Aug-28 21:28N 32°01' E 120°34'0 0.0
2015-Aug-28 20:16N 32°01' E 120°34'0 0.1
2015-Aug-28 19:28N 32°01' E 120°34'0 0.0
2015-Aug-28 18:25N 32°01' E 120°34'0 0.0
2015-Aug-28 17:31N 32°01' E 120°34'0 0.0
2015-Aug-28 12:24N 32°01' E 120°34'7 8.9
2015-Aug-28 11:33N 32°00' E 120°43'10 9.4
2015-Aug-28 10:29N 31°55' E 120°53'1010.3
2015-Aug-28 09:33N 31°47' E 120°59'1110.6
2015-Aug-28 08:33N 31°42' E 121°10'1111.3
2015-Aug-28 07:33N 31°34' E 121°19'1211.7
2015-Aug-28 06:32N 31°26' E 121°30'1010.5
2015-Aug-28 05:33N 31°21' E 121°40'  
Track history (hours):
 
Tides and Currents Weather Stations Pressure Air Temp Water Temp Dewpoint Dewpoint Depression Visibility Wind Speed Wind Dir Waves Ship Positions

Virgo Phoenix

Last reported at 2015-Sep-03 10:33 UTC. Time now 2015-Sep-03 15:16 UTC.
Position N 36°04' E 120°12'.

Length 96 m; draft 6.7 m.

Type: Ship (hazmat cat B). MMSI: 370795000.

Date/timePositionNaut miles runAvg speedWind from/ knotsBaromVisibWave heightAir tempDewpointWater temp
2015-Sep-03 10:33N 36°04' E 120°12'6 6.2
2015-Sep-03 09:33N 36°02' E 120°20'1212.0
2015-Sep-03 08:33N 35°59' E 120°34'  
2015-Aug-30 12:21N 31°03' E 122°08'911.1
2015-Aug-30 11:34N 31°06' E 121°58'1414.3
2015-Aug-30 10:33N 31°16' E 121°46'1212.3
2015-Aug-30 09:33N 31°23' E 121°35'1111.3
2015-Aug-30 08:33N 31°30' E 121°24'1313.2
2015-Aug-30 07:34N 31°39' E 121°13'1312.5
2015-Aug-30 06:29N 31°47' E 120°60'1011.0
2015-Aug-30 05:33N 31°55' E 120°53'1411.3
2015-Aug-30 04:20N 31°60' E 120°37'3 0.5
2015-Aug-29 21:19N 31°60' E 120°34'0 0.0
2015-Aug-29 01:22N 31°60' E 120°34'1 1.3
2015-Aug-29 00:22N 32°01' E 120°34'0 0.0
2015-Aug-28 23:28N 32°01' E 120°34'0 0.0
2015-Aug-28 21:28N 32°01' E 120°34'0 0.0
2015-Aug-28 20:16N 32°01' E 120°34'0 0.1
2015-Aug-28 19:28N 32°01' E 120°34'0 0.0
2015-Aug-28 18:25N 32°01' E 120°34'0 0.0
2015-Aug-28 17:31N 32°01' E 120°34'0 0.0
2015-Aug-28 12:24N 32°01' E 120°34'7 8.9
2015-Aug-28 11:33N 32°00' E 120°43'10 9.4
2015-Aug-28 10:29N 31°55' E 120°53'1010.3
2015-Aug-28 09:33N 31°47' E 120°59'1110.6
2015-Aug-28 08:33N 31°42' E 121°10'1111.3
2015-Aug-28 07:33N 31°34' E 121°19'1211.7
2015-Aug-28 06:32N 31°26' E 121°30'1010.5
2015-Aug-28 05:33N 31°21' E 121°40'  

Dump ship's entire track history